createdAt,value
2018-07-21T00:01:32.279Z,88.46
2018-07-21T00:04:01.525Z,89.55
2018-07-21T00:06:32.000Z,88.42
2018-07-21T00:09:01.241Z,89.80
2018-07-21T00:11:30.491Z,91.39
2018-07-21T00:13:59.788Z,92.13
2018-07-21T00:16:29.028Z,92.43
2018-07-21T00:18:58.280Z,92.93
2018-07-21T00:21:27.514Z,92.88
2018-07-21T00:23:56.756Z,91.80
2018-07-21T00:26:29.776Z,88.92
2018-07-21T00:28:59.070Z,88.97
2018-07-21T00:31:28.315Z,88.65
2018-07-21T00:33:57.606Z,90.45
2018-07-21T00:36:26.837Z,90.61
2018-07-21T00:38:56.054Z,90.13
2018-07-21T00:41:25.294Z,89.77
2018-07-21T00:43:55.618Z,91.35
2018-07-21T00:46:24.846Z,92.64
2018-07-21T00:48:54.115Z,93.50
2018-07-21T00:51:23.407Z,93.19
2018-07-21T00:53:58.273Z,93.72
2018-07-21T00:56:27.578Z,92.76
2018-07-21T00:58:56.836Z,91.50
2018-07-21T01:01:26.090Z,90.88
2018-07-21T01:03:55.322Z,89.03
2018-07-21T01:06:24.561Z,88.97
2018-07-21T01:08:53.816Z,89.32
2018-07-21T01:11:23.254Z,88.92
2018-07-21T01:13:52.519Z,89.38
2018-07-21T01:16:21.817Z,90.45
2018-07-21T01:18:51.096Z,91.93
2018-07-21T01:21:20.530Z,92.88
2018-07-21T01:23:49.762Z,93.06
2018-07-21T01:26:18.985Z,90.17
2018-07-21T01:28:48.214Z,90.31
2018-07-21T01:31:17.451Z,90.69
2018-07-21T01:33:46.676Z,91.11
2018-07-21T01:36:15.932Z,88.66
2018-07-21T01:38:45.196Z,88.67
2018-07-21T01:41:14.427Z,88.05
2018-07-21T01:43:43.666Z,86.95
2018-07-21T01:46:13.036Z,88.98
2018-07-21T01:48:42.284Z,88.98
2018-07-21T01:51:11.548Z,90.46
2018-07-21T01:53:40.779Z,92.06
2018-07-21T01:56:10.007Z,92.58
2018-07-21T01:58:40.493Z,92.57
2018-07-21T02:01:09.706Z,92.98
2018-07-21T02:03:39.744Z,93.01
2018-07-21T02:06:08.984Z,93.71
2018-07-21T02:08:38.209Z,91.69
2018-07-21T02:11:07.502Z,92.18
2018-07-21T02:13:36.711Z,92.12
2018-07-21T02:16:05.964Z,91.97
2018-07-21T02:18:35.194Z,91.00
2018-07-21T02:21:04.656Z,89.35
2018-07-21T02:23:33.871Z,89.49
2018-07-21T02:26:03.162Z,91.62
2018-07-21T02:28:32.399Z,89.22
2018-07-21T02:31:01.685Z,89.91
2018-07-21T02:33:30.932Z,88.45
2018-07-21T02:36:00.151Z,90.32
2018-07-21T02:38:29.385Z,89.69
2018-07-21T02:40:58.601Z,89.23
2018-07-21T02:43:27.838Z,89.69
2018-07-21T02:45:57.090Z,89.60
2018-07-21T02:48:26.317Z,90.53
2018-07-21T02:50:55.574Z,92.97
2018-07-21T02:53:24.786Z,91.03
2018-07-21T02:55:54.020Z,89.42
2018-07-21T02:58:23.278Z,89.00
2018-07-21T03:00:52.481Z,89.60
2018-07-21T03:03:21.714Z,89.40
2018-07-21T03:05:50.955Z,89.05
2018-07-21T03:08:20.195Z,88.86
2018-07-21T03:10:49.456Z,88.91
2018-07-21T03:13:18.677Z,88.70
2018-07-21T03:15:47.930Z,89.10
2018-07-21T03:18:17.201Z,89.75
2018-07-21T03:20:46.465Z,89.19
2018-07-21T03:23:16.973Z,89.11
2018-07-21T03:25:46.238Z,89.38
2018-07-21T03:28:15.472Z,89.78
2018-07-21T03:30:44.760Z,89.56
2018-07-21T03:33:13.913Z,89.47
2018-07-21T03:35:43.204Z,90.08
2018-07-21T03:38:12.447Z,89.26
2018-07-21T03:40:41.703Z,89.59
2018-07-21T03:43:10.942Z,89.54
2018-07-21T03:45:40.165Z,90.16
2018-07-21T03:48:09.394Z,89.12
2018-07-21T03:50:38.676Z,88.07
2018-07-21T03:53:07.886Z,88.15
2018-07-21T03:55:37.155Z,87.82
2018-07-21T03:58:06.489Z,88.09
2018-07-21T04:00:35.775Z,87.22
2018-07-21T04:03:04.953Z,87.56
2018-07-21T04:05:34.190Z,88.38
2018-07-21T04:08:03.444Z,88.94
2018-07-21T04:10:32.704Z,89.07
2018-07-21T04:13:01.923Z,90.55
2018-07-21T04:15:31.154Z,86.71
2018-07-21T04:18:00.364Z,86.91
2018-07-21T04:20:29.618Z,86.91
2018-07-21T04:22:58.829Z,86.83
2018-07-21T04:25:28.077Z,86.75
2018-07-21T04:27:57.332Z,86.01
2018-07-21T04:30:26.595Z,85.82
2018-07-21T04:32:55.838Z,86.49
2018-07-21T04:35:26.302Z,86.60
2018-07-21T04:37:55.519Z,86.83
2018-07-21T04:40:24.828Z,87.07
2018-07-21T04:42:54.460Z,87.92
2018-07-21T04:45:23.718Z,87.69
2018-07-21T04:47:52.955Z,87.13
2018-07-21T04:50:22.163Z,86.22
2018-07-21T04:52:51.374Z,86.37
2018-07-21T04:55:20.611Z,86.68
2018-07-21T04:57:49.878Z,86.10
2018-07-21T05:00:19.124Z,84.24
2018-07-21T05:02:48.374Z,84.27
2018-07-21T05:05:17.650Z,83.75
2018-07-21T05:07:46.892Z,83.39
2018-07-21T05:10:16.128Z,83.52
2018-07-21T05:12:45.396Z,84.11
2018-07-21T05:15:14.680Z,85.07
2018-07-21T05:17:43.928Z,85.98
2018-07-21T05:20:13.238Z,86.74
2018-07-21T05:22:42.387Z,88.71
2018-07-21T05:25:11.683Z,88.83
2018-07-21T05:27:40.923Z,90.88
2018-07-21T05:30:10.238Z,91.49
2018-07-21T05:32:39.488Z,91.71
2018-07-21T05:35:08.791Z,92.77
2018-07-21T05:37:38.069Z,91.31
2018-07-21T05:40:07.338Z,91.64
2018-07-21T05:42:36.616Z,92.05
2018-07-21T05:45:06.421Z,90.61
2018-07-21T05:47:35.696Z,91.50
2018-07-21T05:50:05.673Z,90.43
2018-07-21T05:52:34.916Z,90.98
2018-07-21T05:55:04.157Z,91.11
2018-07-21T05:57:33.439Z,93.87
2018-07-21T06:00:02.640Z,94.60
2018-07-21T06:02:32.831Z,95.48
2018-07-21T06:05:02.066Z,94.34
2018-07-21T06:07:31.311Z,93.90
2018-07-21T06:10:00.537Z,91.41
2018-07-21T06:12:29.795Z,91.52
2018-07-21T06:14:59.045Z,90.81
2018-07-21T06:17:28.311Z,93.93
2018-07-21T06:19:57.523Z,94.29
2018-07-21T06:22:26.915Z,94.53
2018-07-21T06:24:56.185Z,93.22
2018-07-21T06:27:25.424Z,93.15
2018-07-21T06:29:54.658Z,92.44
2018-07-21T06:32:23.878Z,89.32
2018-07-21T06:34:53.100Z,87.47
2018-07-21T06:37:22.322Z,88.31
2018-07-21T06:39:51.596Z,90.77
2018-07-21T06:42:20.812Z,89.04
2018-07-21T06:44:50.035Z,88.82
2018-07-21T06:47:19.258Z,88.26
2018-07-21T06:49:48.495Z,88.69
2018-07-21T06:52:17.710Z,89.81
2018-07-21T06:54:46.970Z,90.26
2018-07-21T06:57:16.211Z,92.59
2018-07-21T06:59:45.450Z,93.15
2018-07-21T07:02:14.720Z,92.62
2018-07-21T07:04:44.015Z,93.58
2018-07-21T07:07:13.204Z,92.47
2018-07-21T07:09:42.483Z,93.19
2018-07-21T07:12:11.716Z,92.09
2018-07-21T07:14:41.026Z,92.07
2018-07-21T07:17:10.304Z,91.27
2018-07-21T07:19:39.538Z,90.91
2018-07-21T07:22:08.782Z,91.15
2018-07-21T07:24:38.167Z,90.53
2018-07-21T07:27:07.488Z,89.66
2018-07-21T07:29:37.046Z,89.72
2018-07-21T07:32:07.050Z,87.93
2018-07-21T07:34:36.323Z,86.96
2018-07-21T07:37:05.873Z,84.30
2018-07-21T07:39:35.164Z,85.72
2018-07-21T07:42:04.408Z,85.10
2018-07-21T07:44:33.659Z,83.65
2018-07-21T07:47:02.939Z,78.87
2018-07-21T07:49:32.273Z,77.98
2018-07-21T07:52:01.521Z,80.60
2018-07-21T07:54:30.818Z,83.92
2018-07-21T07:57:00.035Z,81.22
2018-07-21T07:59:29.287Z,79.71
2018-07-21T08:01:58.555Z,79.94
2018-07-21T08:04:27.800Z,83.29
2018-07-21T08:06:57.056Z,84.07
2018-07-21T08:09:26.323Z,82.68
2018-07-21T08:11:55.617Z,83.89
2018-07-21T08:14:24.936Z,84.77
2018-07-21T08:16:54.190Z,85.90
2018-07-21T08:19:23.423Z,86.12
2018-07-21T08:21:52.684Z,86.52
2018-07-21T08:24:21.940Z,88.23
2018-07-21T08:26:51.208Z,88.22
2018-07-21T08:29:21.031Z,88.19
2018-07-21T08:31:50.296Z,88.91
2018-07-21T08:34:19.676Z,89.45
2018-07-21T08:36:48.909Z,88.98
2018-07-21T08:39:18.139Z,88.45
2018-07-21T08:41:47.351Z,89.72
2018-07-21T08:44:16.596Z,90.19
2018-07-21T08:46:45.847Z,90.92
2018-07-21T08:49:15.140Z,90.57
2018-07-21T08:51:44.381Z,92.63
2018-07-21T08:54:13.612Z,90.53
2018-07-21T08:56:42.846Z,91.88
2018-07-21T08:59:12.167Z,92.83
2018-07-21T09:01:41.470Z,89.91
2018-07-21T09:04:10.726Z,90.02
2018-07-21T09:06:40.005Z,90.52
2018-07-21T09:09:11.593Z,90.46
2018-07-21T09:11:41.407Z,90.44
2018-07-21T09:14:10.676Z,90.77
2018-07-21T09:16:39.944Z,90.73
2018-07-21T09:19:09.175Z,88.76
2018-07-21T09:21:38.578Z,89.76
2018-07-21T09:24:07.797Z,90.16
2018-07-21T09:26:37.035Z,85.87
2018-07-21T09:29:06.356Z,87.25
2018-07-21T09:31:35.585Z,89.12
2018-07-21T09:34:05.000Z,86.92
2018-07-21T09:36:34.260Z,88.42
2018-07-21T09:39:03.547Z,84.64
2018-07-21T09:41:32.888Z,85.19
2018-07-21T09:44:02.115Z,83.24
2018-07-21T09:46:31.423Z,82.86
2018-07-21T09:49:00.646Z,86.23
2018-07-21T09:51:29.882Z,87.27
2018-07-21T09:53:59.134Z,85.81
2018-07-21T09:56:28.326Z,84.74
2018-07-21T09:58:57.586Z,84.93
2018-07-21T10:01:26.825Z,83.93
2018-07-21T10:03:56.104Z,84.63
2018-07-21T10:06:25.335Z,82.55
2018-07-21T10:08:54.609Z,85.39
2018-07-21T10:11:25.070Z,84.13
2018-07-21T10:13:54.354Z,85.01
2018-07-21T10:16:23.567Z,83.18
2018-07-21T10:18:52.847Z,80.78
2018-07-21T10:21:22.091Z,81.93
2018-07-21T10:23:51.345Z,80.63
2018-07-21T10:26:25.843Z,76.96
2018-07-21T10:29:00.256Z,77.52
2018-07-21T10:31:29.475Z,79.49
2018-07-21T10:33:58.760Z,72.22
2018-07-21T10:36:27.980Z,72.47
2018-07-21T10:38:57.237Z,69.97
2018-07-21T10:41:26.481Z,70.88
2018-07-21T10:43:55.731Z,71.13
2018-07-21T10:46:24.971Z,70.48
2018-07-21T10:48:54.204Z,70.92
2018-07-21T10:51:23.489Z,71.00
2018-07-21T10:53:52.718Z,72.79
2018-07-21T10:56:21.944Z,74.85
2018-07-21T10:58:51.170Z,73.89
2018-07-21T11:01:20.391Z,73.75
2018-07-21T11:03:49.672Z,73.98
2018-07-21T11:06:18.946Z,76.82
2018-07-21T11:08:48.190Z,75.08
2018-07-21T11:11:17.488Z,74.32
2018-07-21T11:13:46.741Z,74.71
2018-07-21T11:16:16.001Z,72.25
2018-07-21T11:18:45.256Z,73.45
2018-07-21T11:21:14.494Z,71.93
2018-07-21T11:23:45.362Z,76.70
2018-07-21T11:26:14.821Z,77.22
2018-07-21T11:28:44.080Z,77.44
2018-07-21T11:31:13.348Z,78.14
2018-07-21T11:33:42.571Z,78.60
2018-07-21T11:36:11.993Z,75.32
2018-07-21T11:38:41.050Z,74.67
2018-07-21T11:41:10.364Z,73.12
2018-07-21T11:43:39.599Z,72.43
2018-07-21T11:46:08.827Z,77.94
2018-07-21T11:48:38.041Z,75.80
2018-07-21T11:51:07.584Z,73.54
2018-07-21T11:53:36.812Z,73.41
2018-07-21T11:56:06.046Z,73.84
2018-07-21T11:58:35.272Z,73.93
2018-07-21T12:01:04.547Z,69.64
2018-07-21T12:03:33.795Z,68.79
2018-07-21T12:06:03.030Z,70.02
2018-07-21T12:08:32.254Z,68.92
2018-07-21T12:11:01.500Z,71.63
2018-07-21T12:13:30.733Z,70.80
2018-07-21T12:15:59.938Z,70.47
2018-07-21T12:18:29.143Z,67.79
2018-07-21T12:20:58.371Z,73.87
2018-07-21T12:23:27.664Z,72.82
2018-07-21T12:25:56.908Z,74.95
2018-07-21T12:28:27.120Z,71.67
2018-07-21T12:30:56.402Z,68.41
2018-07-21T12:33:25.630Z,68.37
2018-07-21T12:35:54.889Z,69.16
2018-07-21T12:38:24.111Z,67.08
2018-07-21T12:40:53.380Z,68.41
2018-07-21T12:43:22.644Z,68.36
2018-07-21T12:45:51.895Z,66.96
2018-07-21T12:48:21.122Z,69.16
2018-07-21T12:50:50.337Z,70.17
2018-07-21T12:53:19.580Z,68.07
2018-07-21T12:55:48.888Z,66.54
2018-07-21T12:58:18.099Z,66.39
2018-07-21T13:00:47.334Z,69.82
2018-07-21T13:03:16.617Z,68.63
2018-07-21T13:05:45.817Z,71.23
2018-07-21T13:08:15.019Z,68.85
2018-07-21T13:10:44.257Z,66.08
2018-07-21T13:13:13.483Z,63.54
2018-07-21T13:15:42.702Z,64.98
2018-07-21T13:18:12.002Z,66.73
2018-07-21T13:20:41.312Z,71.78
2018-07-21T13:23:10.559Z,69.23
2018-07-21T13:25:40.184Z,65.68
2018-07-21T13:28:09.466Z,64.81
2018-07-21T13:30:38.685Z,67.31
2018-07-21T13:33:08.219Z,65.38
2018-07-21T13:35:37.438Z,65.45
2018-07-21T13:38:06.762Z,66.32
2018-07-21T13:40:36.034Z,66.60
2018-07-21T13:43:05.403Z,64.65
2018-07-21T13:45:34.678Z,60.12
2018-07-21T13:48:03.921Z,65.87
2018-07-21T13:50:33.154Z,67.70
2018-07-21T13:53:02.419Z,67.14
2018-07-21T13:55:31.666Z,67.69
2018-07-21T13:58:01.016Z,68.38
2018-07-21T14:00:30.284Z,63.73
2018-07-21T14:02:59.560Z,61.72
2018-07-21T14:05:28.812Z,60.73
2018-07-21T14:07:57.867Z,58.88
2018-07-21T14:10:27.518Z,58.83
2018-07-21T14:12:56.784Z,63.41
2018-07-21T14:15:26.041Z,63.63
2018-07-21T14:17:55.293Z,66.94
2018-07-21T14:20:24.568Z,61.50
2018-07-21T14:22:54.108Z,64.93
2018-07-21T14:25:23.341Z,67.78
2018-07-21T14:27:53.065Z,65.57
2018-07-21T14:30:22.356Z,67.60
2018-07-21T14:32:51.578Z,65.07
2018-07-21T14:35:20.816Z,65.63
2018-07-21T14:37:50.045Z,63.53
2018-07-21T14:40:19.261Z,68.52
2018-07-21T14:42:48.499Z,69.85
2018-07-21T14:45:17.723Z,70.52
2018-07-21T14:47:46.964Z,69.02
2018-07-21T14:50:16.171Z,66.21
2018-07-21T14:52:45.413Z,66.65
2018-07-21T14:55:14.704Z,68.99
2018-07-21T14:57:43.955Z,66.36
2018-07-21T15:00:13.211Z,67.51
2018-07-21T15:02:42.433Z,70.22
2018-07-21T15:05:11.712Z,71.78
2018-07-21T15:07:40.931Z,72.61
2018-07-21T15:10:10.175Z,71.23
2018-07-21T15:12:39.431Z,72.92
2018-07-21T15:15:08.629Z,74.41
2018-07-21T15:17:37.901Z,76.14
2018-07-21T15:20:07.595Z,78.18
2018-07-21T15:22:36.884Z,81.38
2018-07-21T15:25:06.408Z,84.16
2018-07-21T15:27:35.728Z,86.46
2018-07-21T15:30:05.066Z,86.05
2018-07-21T15:32:34.329Z,87.30
2018-07-21T15:35:03.568Z,86.75
2018-07-21T15:37:32.811Z,86.68
2018-07-21T15:40:02.076Z,85.59
2018-07-21T15:42:31.310Z,85.96
2018-07-21T15:45:00.554Z,86.81
2018-07-21T15:47:29.824Z,86.28
2018-07-21T15:49:59.056Z,85.54
2018-07-21T15:52:28.294Z,85.21
2018-07-21T15:54:57.565Z,84.85
2018-07-21T15:57:26.754Z,85.48
2018-07-21T15:59:55.978Z,83.42
2018-07-21T16:02:25.232Z,83.46
2018-07-21T16:04:54.694Z,82.17
2018-07-21T16:07:23.890Z,84.04
2018-07-21T16:09:53.118Z,82.65
2018-07-21T16:12:22.370Z,80.72
2018-07-21T16:14:51.616Z,81.70
2018-07-21T16:17:20.844Z,78.17
2018-07-21T16:19:50.045Z,81.67
2018-07-21T16:22:19.291Z,82.44
2018-07-21T16:24:48.559Z,82.09
2018-07-21T16:27:17.915Z,82.42
2018-07-21T16:29:47.283Z,82.58
2018-07-21T16:32:16.509Z,84.15
2018-07-21T16:34:45.824Z,83.20
2018-07-21T16:37:15.050Z,82.04
2018-07-21T16:39:45.382Z,80.51
2018-07-21T16:42:14.634Z,83.43
2018-07-21T16:44:43.949Z,79.23
2018-07-21T16:47:13.191Z,80.37
2018-07-21T16:49:42.476Z,79.84
2018-07-21T16:52:11.718Z,78.46
2018-07-21T16:54:41.950Z,79.51
2018-07-21T16:57:11.214Z,81.83
2018-07-21T16:59:40.512Z,80.79
2018-07-21T17:02:09.763Z,83.13
2018-07-21T17:04:39.994Z,82.96
2018-07-21T17:07:09.311Z,82.41
2018-07-21T17:09:38.556Z,82.16
2018-07-21T17:12:07.762Z,81.53
2018-07-21T17:14:37.059Z,84.06
2018-07-21T17:17:06.281Z,81.68
2018-07-21T17:19:35.542Z,82.05
2018-07-21T17:22:05.765Z,82.26
2018-07-21T17:24:35.005Z,81.42
2018-07-21T17:27:04.264Z,82.11
2018-07-21T17:29:33.545Z,79.84
2018-07-21T17:32:02.774Z,83.34
2018-07-21T17:34:32.028Z,84.40
2018-07-21T17:37:01.247Z,83.03
2018-07-21T17:39:30.512Z,82.75
2018-07-21T17:41:59.721Z,82.71
2018-07-21T17:44:28.969Z,83.65
2018-07-21T17:46:58.184Z,83.39
2018-07-21T17:49:27.442Z,82.63
2018-07-21T17:51:56.686Z,84.23
2018-07-21T17:54:25.942Z,83.22
2018-07-21T17:56:55.163Z,84.01
2018-07-21T17:59:24.650Z,83.67
2018-07-21T18:01:54.143Z,84.22
2018-07-21T18:04:23.410Z,85.48
2018-07-21T18:06:52.668Z,86.50
2018-07-21T18:09:21.932Z,85.25
2018-07-21T18:11:51.173Z,87.14
2018-07-21T18:14:20.486Z,85.85
2018-07-21T18:16:49.726Z,85.36
2018-07-21T18:19:18.959Z,85.36
2018-07-21T18:21:48.303Z,83.98
2018-07-21T18:24:17.507Z,84.44
2018-07-21T18:26:46.766Z,84.74
2018-07-21T18:29:16.028Z,84.75
2018-07-21T18:31:45.325Z,85.31
2018-07-21T18:34:14.534Z,85.07
2018-07-21T18:36:43.760Z,84.60
2018-07-21T18:39:13.303Z,83.69
2018-07-21T18:41:42.605Z,84.21
2018-07-21T18:44:11.843Z,85.61
2018-07-21T18:46:41.065Z,86.49
2018-07-21T18:49:10.541Z,85.07
2018-07-21T18:51:40.015Z,86.60
2018-07-21T18:54:09.876Z,87.17
2018-07-21T18:56:39.095Z,86.68
2018-07-21T18:59:08.384Z,86.67
2018-07-21T19:01:37.606Z,86.96
2018-07-21T19:04:06.939Z,87.04
2018-07-21T19:06:36.181Z,88.18
2018-07-21T19:09:08.482Z,86.53
2018-07-21T19:11:37.884Z,86.98
2018-07-21T19:14:07.401Z,87.17
2018-07-21T19:16:39.463Z,88.26
2018-07-21T19:19:08.803Z,88.71
2018-07-21T19:21:45.000Z,88.93
2018-07-21T19:24:14.238Z,88.80
2018-07-21T19:26:48.490Z,88.00
2018-07-21T19:29:17.725Z,87.49
2018-07-21T19:31:52.243Z,86.76
2018-07-21T19:34:21.427Z,86.92
2018-07-21T19:36:50.673Z,88.97
2018-07-21T19:39:20.764Z,90.47
2018-07-21T19:41:55.231Z,88.36
2018-07-21T19:44:24.458Z,86.85
2018-07-21T19:46:53.710Z,87.37
2018-07-21T19:49:22.924Z,88.80
2018-07-21T19:51:52.166Z,89.03
2018-07-21T19:54:21.416Z,89.96
2018-07-21T19:56:50.735Z,89.57
2018-07-21T19:59:20.000Z,90.12
2018-07-21T20:01:49.230Z,91.00
2018-07-21T20:04:18.474Z,90.96
2018-07-21T20:06:47.730Z,91.74
2018-07-21T20:09:16.956Z,91.28
2018-07-21T20:11:46.191Z,91.42
2018-07-21T20:14:15.478Z,92.03
2018-07-21T20:16:44.744Z,92.40
2018-07-21T20:19:13.971Z,92.10
2018-07-21T20:21:43.248Z,91.79
2018-07-21T20:24:12.513Z,92.91
2018-07-21T20:26:41.710Z,92.37
2018-07-21T20:29:10.950Z,91.15
2018-07-21T20:31:40.178Z,90.50
2018-07-21T20:34:09.493Z,90.72
2018-07-21T20:36:38.722Z,91.24
2018-07-21T20:39:09.795Z,90.80
2018-07-21T20:41:39.145Z,90.52
2018-07-21T20:44:08.474Z,90.67
2018-07-21T20:46:37.678Z,91.20
2018-07-21T20:49:06.944Z,91.80
2018-07-21T20:51:36.193Z,91.79
2018-07-21T20:54:05.458Z,91.94
2018-07-21T20:56:34.727Z,92.21
2018-07-21T20:59:04.002Z,92.72
2018-07-21T21:01:33.274Z,93.23
2018-07-21T21:04:02.541Z,94.26
2018-07-21T21:06:31.780Z,94.57
2018-07-21T21:09:01.182Z,92.90
2018-07-21T21:11:30.443Z,93.26
2018-07-21T21:13:59.682Z,94.32
2018-07-21T21:16:28.960Z,94.64
2018-07-21T21:18:58.340Z,94.29
2018-07-21T21:21:27.577Z,94.35
2018-07-21T21:23:56.801Z,94.26
2018-07-21T21:26:26.031Z,94.59
2018-07-21T21:28:55.278Z,95.06
2018-07-21T21:31:24.515Z,94.80
2018-07-21T21:33:53.808Z,95.42
2018-07-21T21:36:23.092Z,95.71
2018-07-21T21:38:52.372Z,96.49
2018-07-21T21:41:21.636Z,96.82
2018-07-21T21:43:52.112Z,95.28
2018-07-21T21:46:21.403Z,95.31
2018-07-21T21:48:50.659Z,97.09
2018-07-21T21:51:19.967Z,98.06
2018-07-21T21:53:49.236Z,97.84
2018-07-21T21:56:18.617Z,97.12
2018-07-21T21:58:54.419Z,97.88
2018-07-21T22:01:23.619Z,97.33
2018-07-21T22:03:52.859Z,96.89
2018-07-21T22:06:22.103Z,98.48
2018-07-21T22:08:51.385Z,97.87
2018-07-21T22:11:20.950Z,96.55
2018-07-21T22:13:50.203Z,96.87
2018-07-21T22:16:19.450Z,97.46
2018-07-21T22:18:48.696Z,97.06
2018-07-21T22:21:17.908Z,96.68
2018-07-21T22:23:47.122Z,97.26
2018-07-21T22:26:20.469Z,96.39
2018-07-21T22:28:54.114Z,95.50
2018-07-21T22:31:27.718Z,94.99
2018-07-21T22:34:00.324Z,96.46
2018-07-21T22:36:33.978Z,96.00
2018-07-21T22:39:10.809Z,95.32
2018-07-21T22:41:43.162Z,93.94
2018-07-21T22:44:12.425Z,93.35
2018-07-21T22:46:41.717Z,92.34
2018-07-21T22:49:10.978Z,92.90
2018-07-21T22:51:40.202Z,92.04
2018-07-21T22:54:09.411Z,93.17
2018-07-21T22:56:38.647Z,92.49
2018-07-21T22:59:08.173Z,93.12
2018-07-21T23:01:37.493Z,92.23
2018-07-21T23:04:07.088Z,90.24
2018-07-21T23:06:36.305Z,91.26
2018-07-21T23:09:06.923Z,90.94
2018-07-21T23:11:36.248Z,90.76
2018-07-21T23:14:05.541Z,90.89
2018-07-21T23:16:34.892Z,91.33
2018-07-21T23:19:04.181Z,90.95
2018-07-21T23:21:33.419Z,91.79
2018-07-21T23:24:02.630Z,92.17
2018-07-21T23:26:31.870Z,91.60
2018-07-21T23:29:01.103Z,92.16
2018-07-21T23:31:30.352Z,91.57
2018-07-21T23:33:59.602Z,92.78
2018-07-21T23:36:28.912Z,93.22
2018-07-21T23:38:58.124Z,91.43
2018-07-21T23:41:27.380Z,93.09
2018-07-21T23:43:56.614Z,93.88
2018-07-21T23:46:25.888Z,93.76
2018-07-21T23:48:55.250Z,94.25
2018-07-21T23:51:24.597Z,93.99
2018-07-21T23:53:53.880Z,94.50
2018-07-21T23:56:23.130Z,93.67
2018-07-21T23:58:52.362Z,94.34
